LEIB

Ibiza Airport

Airport
ICAO code
LEIB
IATA Code
IBZ
Summary
ICAO Region
EUR
ICAO Territory
Location

Es Codolá, Ibiza, Balearics,

Serving
Ibiza
Elevation
24 ft
Coordinates
38° 52' 24" N , 1° 22' 24" E
KCC
Csa
Metar
Observation
LEIB 112300Z 11002KT CAVOK 26/22 Q1015 NOSIG
Station
Ibiza / Es Codola
Date/Time
2022-08-11 23:00:00
Wind direction
110°
Wind speed
02 kts
Lowest cloud amount
clouds and visibility OK
Temperature
26°C
Dew point
22°C
Humidity
78%
QNH
1015 hPa
Weather condition
n/a

International airport serving island of Ibiza.

Climatology

Dry-summer subtropical ”Mediterranean" climate (Köppen climate classification Csa) - characterized by hot, dry summers and mild winters. During the summer, subtropical high pressure cells dominate, making rainfall unlikely except for the occasional thunderstorm. In the winter, periodic storms bring rain.

Runways

Designator Length Width Surface Rops
6/24 2800 45 ASP Yes/Yes

Airport map

Aerial View

SKYbrary Partners:

Safety knowledge contributed by: